Athens, Michigan
Current Conditions -  °F | °C
As of 3:54 PM on Friday 31 Oct 2014 (Local Time) from KOEB Reporting Station
Overcast Overcast  
Wind Chill: 29°   Ceiling: 1200
Heat Index: 38°   Visibility: NA
Dew Point: 35°   Wind: 16mph
Humidity: 89%   Direction: 20°NNE
Pressure: 29.97"   Gusts: 28mph
Location:  42.09°N, 85.23°W
Report Text: KOEB 311954Z AUTO 02014G24KT BKN012 OVC019 03/02 A2997 RMK AO2 T00330017 PWINO
Loading
Personal Weather Stations






























Interactive Weather Map New forecast layout! Learn more

10-Day Weather Forecast

Advertisements
Track Severe Weather on mobile